sensor_id;sensor_type;location;lat;lon;timestamp;P1;durP1;ratioP1;P2;durP2;ratioP2
52412;SDS011;38339;53.234;6.578;2022-09-12T00:02:01;11.40;;;10.13;;
52412;SDS011;38339;53.234;6.578;2022-09-12T00:04:26;10.80;;;9.52;;
52412;SDS011;38339;53.234;6.578;2022-09-12T00:06:52;10.68;;;9.55;;
52412;SDS011;38339;53.234;6.578;2022-09-12T00:09:18;12.13;;;9.85;;
52412;SDS011;38339;53.234;6.578;2022-09-12T00:11:45;13.65;;;9.68;;
52412;SDS011;38339;53.234;6.578;2022-09-12T00:14:15;12.18;;;10.07;;
52412;SDS011;38339;53.234;6.578;2022-09-12T00:16:42;11.07;;;9.88;;
52412;SDS011;38339;53.234;6.578;2022-09-12T00:19:09;10.38;;;9.27;;
52412;SDS011;38339;53.234;6.578;2022-09-12T00:21:37;13.60;;;10.20;;
52412;SDS011;38339;53.234;6.578;2022-09-12T00:24:04;11.73;;;10.38;;
52412;SDS011;38339;53.234;6.578;2022-09-12T00:26:30;12.82;;;10.50;;
52412;SDS011;38339;53.234;6.578;2022-09-12T00:28:56;13.65;;;10.55;;
52412;SDS011;38339;53.234;6.578;2022-09-12T00:31:23;11.73;;;10.48;;
52412;SDS011;38339;53.234;6.578;2022-09-12T00:33:51;14.32;;;11.25;;
52412;SDS011;38339;53.234;6.578;2022-09-12T00:36:19;11.90;;;10.18;;
52412;SDS011;38339;53.234;6.578;2022-09-12T00:38:47;12.40;;;10.63;;
52412;SDS011;38339;53.234;6.578;2022-09-12T00:41:32;12.88;;;10.90;;
52412;SDS011;38339;53.234;6.578;2022-09-12T00:44:02;12.65;;;11.35;;
52412;SDS011;38339;53.234;6.578;2022-09-12T00:49:15;15.85;;;12.10;;
52412;SDS011;38339;53.234;6.578;2022-09-12T00:51:43;13.05;;;11.70;;
52412;SDS011;38339;53.234;6.578;2022-09-12T00:54:15;12.73;;;11.32;;
52412;SDS011;38339;53.234;6.578;2022-09-12T00:56:45;14.75;;;13.07;;
52412;SDS011;38339;53.234;6.578;2022-09-12T00:59:16;13.55;;;11.75;;
52412;SDS011;38339;53.234;6.578;2022-09-12T01:01:43;15.48;;;12.23;;
52412;SDS011;38339;53.234;6.578;2022-09-12T01:04:12;14.15;;;12.40;;
52412;SDS011;38339;53.234;6.578;2022-09-12T01:06:39;14.13;;;12.00;;
52412;SDS011;38339;53.234;6.578;2022-09-12T01:09:07;13.73;;;12.30;;
52412;SDS011;38339;53.234;6.578;2022-09-12T01:11:39;15.38;;;12.13;;
52412;SDS011;38339;53.234;6.578;2022-09-12T01:14:05;16.98;;;12.70;;
52412;SDS011;38339;53.234;6.578;2022-09-12T01:16:35;16.40;;;13.38;;
52412;SDS011;38339;53.234;6.578;2022-09-12T01:36:07;15.25;;;13.75;;
52412;SDS011;38339;53.234;6.578;2022-09-12T01:38:37;14.98;;;13.48;;
52412;SDS011;38339;53.234;6.578;2022-09-12T01:41:27;15.68;;;14.07;;
52412;SDS011;38339;53.234;6.578;2022-09-12T01:55:40;17.98;;;14.23;;
52412;SDS011;38339;53.234;6.578;2022-09-12T01:58:31;16.02;;;14.32;;
52412;SDS011;38339;53.234;6.578;2022-09-12T02:01:29;17.00;;;14.68;;
52412;SDS011;38339;53.234;6.578;2022-09-12T02:04:09;16.55;;;14.50;;
52412;SDS011;38339;53.234;6.578;2022-09-12T02:06:48;16.02;;;14.43;;
52412;SDS011;38339;53.234;6.578;2022-09-12T02:09:28;17.15;;;15.35;;
52412;SDS011;38339;53.234;6.578;2022-09-12T02:12:15;16.45;;;14.75;;
52412;SDS011;38339;53.234;6.578;2022-09-12T02:14:46;16.65;;;13.68;;
52412;SDS011;38339;53.234;6.578;2022-09-12T02:17:17;17.80;;;15.20;;
52412;SDS011;38339;53.234;6.578;2022-09-12T02:19:48;16.50;;;14.80;;
52412;SDS011;38339;53.234;6.578;2022-09-12T02:22:19;17.98;;;15.35;;
52412;SDS011;38339;53.234;6.578;2022-09-12T02:24:48;18.27;;;16.40;;
52412;SDS011;38339;53.234;6.578;2022-09-12T02:27:23;19.38;;;16.63;;
52412;SDS011;38339;53.234;6.578;2022-09-12T02:30:05;19.60;;;16.17;;
52412;SDS011;38339;53.234;6.578;2022-09-12T02:35:28;22.65;;;17.17;;
52412;SDS011;38339;53.234;6.578;2022-09-12T02:40:33;22.17;;;19.42;;
52412;SDS011;38339;53.234;6.578;2022-09-12T02:43:00;25.48;;;20.38;;
52412;SDS011;38339;53.234;6.578;2022-09-12T02:45:27;27.05;;;24.10;;
52412;SDS011;38339;53.234;6.578;2022-09-12T02:50:25;32.67;;;29.08;;
52412;SDS011;38339;53.234;6.578;2022-09-12T02:52:51;40.25;;;34.15;;
52412;SDS011;38339;53.234;6.578;2022-09-12T02:55:19;49.58;;;41.88;;
52412;SDS011;38339;53.234;6.578;2022-09-12T02:57:45;44.13;;;39.28;;
52412;SDS011;38339;53.234;6.578;2022-09-12T03:00:11;55.65;;;47.03;;
52412;SDS011;38339;53.234;6.578;2022-09-12T03:08:26;55.75;;;46.70;;
52412;SDS011;38339;53.234;6.578;2022-09-12T03:24:32;37.45;;;33.08;;
52412;SDS011;38339;53.234;6.578;2022-09-12T03:29:45;36.65;;;29.85;;
52412;SDS011;38339;53.234;6.578;2022-09-12T03:32:13;31.83;;;27.77;;
52412;SDS011;38339;53.234;6.578;2022-09-12T03:34:39;31.90;;;27.17;;
52412;SDS011;38339;53.234;6.578;2022-09-12T03:37:05;29.75;;;26.52;;
52412;SDS011;38339;53.234;6.578;2022-09-12T03:39:30;28.60;;;25.42;;
52412;SDS011;38339;53.234;6.578;2022-09-12T03:41:56;28.63;;;25.48;;
52412;SDS011;38339;53.234;6.578;2022-09-12T03:44:22;31.42;;;23.95;;
52412;SDS011;38339;53.234;6.578;2022-09-12T03:46:48;27.08;;;24.10;;
52412;SDS011;38339;53.234;6.578;2022-09-12T03:49:14;26.05;;;22.30;;
52412;SDS011;38339;53.234;6.578;2022-09-12T03:51:40;25.08;;;22.38;;
52412;SDS011;38339;53.234;6.578;2022-09-12T03:54:07;25.10;;;22.10;;
52412;SDS011;38339;53.234;6.578;2022-09-12T03:56:34;27.02;;;22.17;;
52412;SDS011;38339;53.234;6.578;2022-09-12T03:59:00;28.27;;;22.45;;
52412;SDS011;38339;53.234;6.578;2022-09-12T04:01:28;25.92;;;21.88;;
52412;SDS011;38339;53.234;6.578;2022-09-12T04:03:54;27.27;;;22.40;;
52412;SDS011;38339;53.234;6.578;2022-09-12T04:06:20;28.33;;;22.35;;
52412;SDS011;38339;53.234;6.578;2022-09-12T04:08:47;24.45;;;21.42;;
52412;SDS011;38339;53.234;6.578;2022-09-12T04:11:14;26.42;;;20.70;;
52412;SDS011;38339;53.234;6.578;2022-09-12T04:13:41;24.08;;;20.35;;
52412;SDS011;38339;53.234;6.578;2022-09-12T04:16:08;25.42;;;21.38;;
52412;SDS011;38339;53.234;6.578;2022-09-12T04:18:35;25.13;;;20.83;;
52412;SDS011;38339;53.234;6.578;2022-09-12T04:21:03;28.70;;;22.27;;
52412;SDS011;38339;53.234;6.578;2022-09-12T04:23:34;23.48;;;20.33;;
52412;SDS011;38339;53.234;6.578;2022-09-12T04:26:00;27.08;;;22.65;;
52412;SDS011;38339;53.234;6.578;2022-09-12T04:28:30;26.77;;;21.90;;
52412;SDS011;38339;53.234;6.578;2022-09-12T04:31:00;24.63;;;20.73;;
52412;SDS011;38339;53.234;6.578;2022-09-12T04:33:26;26.88;;;21.58;;
52412;SDS011;38339;53.234;6.578;2022-09-12T04:35:52;28.33;;;20.98;;
52412;SDS011;38339;53.234;6.578;2022-09-12T04:38:18;27.85;;;20.77;;
52412;SDS011;38339;53.234;6.578;2022-09-12T04:40:43;26.25;;;21.38;;
52412;SDS011;38339;53.234;6.578;2022-09-12T04:43:09;25.95;;;21.38;;
52412;SDS011;38339;53.234;6.578;2022-09-12T04:45:34;26.42;;;21.13;;
52412;SDS011;38339;53.234;6.578;2022-09-12T04:48:00;26.30;;;22.85;;
52412;SDS011;38339;53.234;6.578;2022-09-12T04:50:26;26.50;;;22.23;;
52412;SDS011;38339;53.234;6.578;2022-09-12T04:52:52;27.33;;;22.40;;
52412;SDS011;38339;53.234;6.578;2022-09-12T04:55:19;27.65;;;21.60;;
52412;SDS011;38339;53.234;6.578;2022-09-12T04:57:45;30.00;;;23.67;;
52412;SDS011;38339;53.234;6.578;2022-09-12T05:00:11;29.15;;;22.30;;
52412;SDS011;38339;53.234;6.578;2022-09-12T05:02:41;30.98;;;22.80;;
52412;SDS011;38339;53.234;6.578;2022-09-12T05:05:07;29.02;;;22.02;;
52412;SDS011;38339;53.234;6.578;2022-09-12T05:07:33;27.85;;;21.58;;
52412;SDS011;38339;53.234;6.578;2022-09-12T05:10:00;29.83;;;22.58;;
52412;SDS011;38339;53.234;6.578;2022-09-12T05:12:28;46.70;;;24.25;;
52412;SDS011;38339;53.234;6.578;2022-09-12T05:14:55;30.35;;;21.92;;
52412;SDS011;38339;53.234;6.578;2022-09-12T05:17:20;28.13;;;21.92;;
52412;SDS011;38339;53.234;6.578;2022-09-12T05:19:46;29.83;;;21.70;;
52412;SDS011;38339;53.234;6.578;2022-09-12T05:22:12;26.92;;;21.25;;
52412;SDS011;38339;53.234;6.578;2022-09-12T05:24:38;26.77;;;21.33;;
52412;SDS011;38339;53.234;6.578;2022-09-12T05:27:07;29.65;;;21.45;;
52412;SDS011;38339;53.234;6.578;2022-09-12T05:29:33;27.92;;;21.27;;
52412;SDS011;38339;53.234;6.578;2022-09-12T05:32:00;26.83;;;20.83;;
52412;SDS011;38339;53.234;6.578;2022-09-12T05:34:26;26.77;;;21.20;;
52412;SDS011;38339;53.234;6.578;2022-09-12T05:36:51;31.00;;;20.85;;
52412;SDS011;38339;53.234;6.578;2022-09-12T05:39:17;35.03;;;22.33;;
52412;SDS011;38339;53.234;6.578;2022-09-12T05:41:43;26.88;;;20.40;;
52412;SDS011;38339;53.234;6.578;2022-09-12T05:44:10;26.05;;;20.48;;
52412;SDS011;38339;53.234;6.578;2022-09-12T05:46:39;28.00;;;19.73;;
52412;SDS011;38339;53.234;6.578;2022-09-12T05:49:07;25.50;;;20.48;;
52412;SDS011;38339;53.234;6.578;2022-09-12T05:51:36;28.25;;;21.80;;
52412;SDS011;38339;53.234;6.578;2022-09-12T05:54:04;27.48;;;21.30;;
52412;SDS011;38339;53.234;6.578;2022-09-12T05:56:32;29.52;;;22.30;;
52412;SDS011;38339;53.234;6.578;2022-09-12T05:59:03;27.52;;;20.90;;
52412;SDS011;38339;53.234;6.578;2022-09-12T06:01:31;30.52;;;21.02;;
52412;SDS011;38339;53.234;6.578;2022-09-12T06:04:00;31.77;;;22.30;;
52412;SDS011;38339;53.234;6.578;2022-09-12T06:06:29;27.70;;;21.42;;
52412;SDS011;38339;53.234;6.578;2022-09-12T06:08:56;30.00;;;21.73;;
52412;SDS011;38339;53.234;6.578;2022-09-12T06:11:24;27.98;;;20.73;;
52412;SDS011;38339;53.234;6.578;2022-09-12T06:13:53;26.90;;;20.95;;
52412;SDS011;38339;53.234;6.578;2022-09-12T06:16:22;29.63;;;21.08;;
52412;SDS011;38339;53.234;6.578;2022-09-12T06:18:54;28.52;;;21.10;;
52412;SDS011;38339;53.234;6.578;2022-09-12T06:21:21;25.50;;;19.98;;
52412;SDS011;38339;53.234;6.578;2022-09-12T06:23:48;27.08;;;21.25;;
52412;SDS011;38339;53.234;6.578;2022-09-12T06:26:14;28.80;;;21.58;;
52412;SDS011;38339;53.234;6.578;2022-09-12T06:28:42;27.80;;;22.08;;
52412;SDS011;38339;53.234;6.578;2022-09-12T06:31:10;32.85;;;22.77;;
52412;SDS011;38339;53.234;6.578;2022-09-12T06:33:42;34.40;;;23.65;;
52412;SDS011;38339;53.234;6.578;2022-09-12T06:36:19;32.70;;;24.63;;
52412;SDS011;38339;53.234;6.578;2022-09-12T06:38:47;30.77;;;23.08;;
52412;SDS011;38339;53.234;6.578;2022-09-12T06:41:17;36.95;;;27.00;;
52412;SDS011;38339;53.234;6.578;2022-09-12T06:43:43;35.38;;;25.55;;
52412;SDS011;38339;53.234;6.578;2022-09-12T06:46:08;34.33;;;25.13;;
52412;SDS011;38339;53.234;6.578;2022-09-12T06:48:36;38.53;;;27.08;;
52412;SDS011;38339;53.234;6.578;2022-09-12T06:51:03;40.03;;;27.58;;
52412;SDS011;38339;53.234;6.578;2022-09-12T06:53:37;39.47;;;27.40;;
52412;SDS011;38339;53.234;6.578;2022-09-12T06:58:34;43.72;;;29.15;;
52412;SDS011;38339;53.234;6.578;2022-09-12T07:03:40;40.88;;;29.08;;
52412;SDS011;38339;53.234;6.578;2022-09-12T07:06:08;42.35;;;28.65;;
52412;SDS011;38339;53.234;6.578;2022-09-12T07:08:36;40.80;;;28.75;;
52412;SDS011;38339;53.234;6.578;2022-09-12T07:11:10;40.50;;;28.48;;
52412;SDS011;38339;53.234;6.578;2022-09-12T07:13:37;42.47;;;29.92;;
52412;SDS011;38339;53.234;6.578;2022-09-12T07:16:04;39.85;;;28.17;;
52412;SDS011;38339;53.234;6.578;2022-09-12T07:18:30;42.50;;;29.70;;
52412;SDS011;38339;53.234;6.578;2022-09-12T07:21:00;47.90;;;30.13;;
52412;SDS011;38339;53.234;6.578;2022-09-12T07:23:27;43.08;;;30.10;;
52412;SDS011;38339;53.234;6.578;2022-09-12T07:25:56;48.45;;;32.10;;
52412;SDS011;38339;53.234;6.578;2022-09-12T07:28:24;45.55;;;30.30;;
52412;SDS011;38339;53.234;6.578;2022-09-12T07:30:51;49.35;;;29.98;;
52412;SDS011;38339;53.234;6.578;2022-09-12T07:33:20;44.42;;;30.20;;
52412;SDS011;38339;53.234;6.578;2022-09-12T07:35:51;45.08;;;30.90;;
52412;SDS011;38339;53.234;6.578;2022-09-12T07:38:18;55.67;;;36.75;;
52412;SDS011;38339;53.234;6.578;2022-09-12T07:40:45;49.33;;;33.63;;
52412;SDS011;38339;53.234;6.578;2022-09-12T07:43:10;56.10;;;35.47;;
52412;SDS011;38339;53.234;6.578;2022-09-12T07:45:36;51.03;;;32.50;;
52412;SDS011;38339;53.234;6.578;2022-09-12T07:48:06;49.72;;;33.42;;
52412;SDS011;38339;53.234;6.578;2022-09-12T07:50:32;51.05;;;32.88;;
52412;SDS011;38339;53.234;6.578;2022-09-12T07:52:58;50.97;;;35.47;;
52412;SDS011;38339;53.234;6.578;2022-09-12T07:55:23;54.33;;;36.45;;
52412;SDS011;38339;53.234;6.578;2022-09-12T07:57:52;49.95;;;34.95;;
52412;SDS011;38339;53.234;6.578;2022-09-12T08:00:19;51.10;;;32.40;;
52412;SDS011;38339;53.234;6.578;2022-09-12T08:02:49;51.30;;;32.92;;
52412;SDS011;38339;53.234;6.578;2022-09-12T08:05:16;51.40;;;32.58;;
52412;SDS011;38339;53.234;6.578;2022-09-12T08:07:41;50.95;;;32.28;;
52412;SDS011;38339;53.234;6.578;2022-09-12T08:10:07;51.17;;;32.92;;
52412;SDS011;38339;53.234;6.578;2022-09-12T08:12:33;49.63;;;33.60;;
52412;SDS011;38339;53.234;6.578;2022-09-12T08:14:59;52.33;;;33.78;;
52412;SDS011;38339;53.234;6.578;2022-09-12T08:17:25;48.95;;;31.38;;
52412;SDS011;38339;53.234;6.578;2022-09-12T08:19:50;52.05;;;33.65;;
52412;SDS011;38339;53.234;6.578;2022-09-12T08:22:16;51.95;;;32.50;;
52412;SDS011;38339;53.234;6.578;2022-09-12T08:24:46;49.85;;;31.52;;
52412;SDS011;38339;53.234;6.578;2022-09-12T08:27:12;49.03;;;32.70;;
52412;SDS011;38339;53.234;6.578;2022-09-12T08:29:38;61.47;;;39.75;;
52412;SDS011;38339;53.234;6.578;2022-09-12T08:32:04;54.15;;;33.28;;
52412;SDS011;38339;53.234;6.578;2022-09-12T08:34:36;45.35;;;30.13;;
52412;SDS011;38339;53.234;6.578;2022-09-12T08:37:01;48.50;;;31.83;;
52412;SDS011;38339;53.234;6.578;2022-09-12T08:39:28;49.17;;;31.77;;
52412;SDS011;38339;53.234;6.578;2022-09-12T08:42:03;47.33;;;31.42;;
52412;SDS011;38339;53.234;6.578;2022-09-12T08:47:30;44.38;;;29.60;;
52412;SDS011;38339;53.234;6.578;2022-09-12T08:57:55;44.55;;;29.92;;
52412;SDS011;38339;53.234;6.578;2022-09-12T09:00:22;46.42;;;29.85;;
52412;SDS011;38339;53.234;6.578;2022-09-12T09:05:42;43.45;;;29.02;;
52412;SDS011;38339;53.234;6.578;2022-09-12T09:08:37;44.05;;;28.80;;
52412;SDS011;38339;53.234;6.578;2022-09-12T09:13:49;44.80;;;29.35;;
52412;SDS011;38339;53.234;6.578;2022-09-12T09:16:55;43.92;;;28.63;;
52412;SDS011;38339;53.234;6.578;2022-09-12T09:19:33;44.15;;;27.95;;
52412;SDS011;38339;53.234;6.578;2022-09-12T09:22:06;44.00;;;28.63;;
52412;SDS011;38339;53.234;6.578;2022-09-12T09:25:01;43.55;;;27.25;;
52412;SDS011;38339;53.234;6.578;2022-09-12T09:30:22;40.38;;;27.20;;
52412;SDS011;38339;53.234;6.578;2022-09-12T09:32:49;41.53;;;26.85;;
52412;SDS011;38339;53.234;6.578;2022-09-12T09:35:27;41.97;;;26.55;;
52412;SDS011;38339;53.234;6.578;2022-09-12T09:37:57;39.10;;;26.58;;
52412;SDS011;38339;53.234;6.578;2022-09-12T09:40:30;46.83;;;26.58;;
52412;SDS011;38339;53.234;6.578;2022-09-12T09:42:59;43.92;;;27.25;;
52412;SDS011;38339;53.234;6.578;2022-09-12T09:45:57;42.25;;;26.73;;
52412;SDS011;38339;53.234;6.578;2022-09-12T09:50:52;43.38;;;27.38;;
52412;SDS011;38339;53.234;6.578;2022-09-12T09:55:53;42.13;;;25.67;;
52412;SDS011;38339;53.234;6.578;2022-09-12T09:58:27;40.97;;;23.73;;
52412;SDS011;38339;53.234;6.578;2022-09-12T10:00:58;41.50;;;26.10;;
52412;SDS011;38339;53.234;6.578;2022-09-12T10:03:32;39.72;;;25.55;;
52412;SDS011;38339;53.234;6.578;2022-09-12T10:06:20;37.80;;;23.27;;
52412;SDS011;38339;53.234;6.578;2022-09-12T10:08:49;42.10;;;26.15;;
52412;SDS011;38339;53.234;6.578;2022-09-12T10:18:44;45.55;;;25.13;;
52412;SDS011;38339;53.234;6.578;2022-09-12T10:21:18;41.60;;;25.73;;
52412;SDS011;38339;53.234;6.578;2022-09-12T10:23:46;36.92;;;24.15;;
52412;SDS011;38339;53.234;6.578;2022-09-12T10:26:15;40.22;;;24.85;;
52412;SDS011;38339;53.234;6.578;2022-09-12T10:28:53;40.22;;;24.70;;
52412;SDS011;38339;53.234;6.578;2022-09-12T10:31:24;37.72;;;22.83;;
52412;SDS011;38339;53.234;6.578;2022-09-12T10:33:54;36.85;;;23.40;;
52412;SDS011;38339;53.234;6.578;2022-09-12T10:36:22;43.83;;;23.50;;
52412;SDS011;38339;53.234;6.578;2022-09-12T10:38:55;37.85;;;23.05;;
52412;SDS011;38339;53.234;6.578;2022-09-12T10:41:24;33.30;;;21.83;;
52412;SDS011;38339;53.234;6.578;2022-09-12T10:43:50;34.83;;;20.45;;
52412;SDS011;38339;53.234;6.578;2022-09-12T10:48:42;33.25;;;20.42;;
52412;SDS011;38339;53.234;6.578;2022-09-12T10:53:54;30.40;;;18.30;;
52412;SDS011;38339;53.234;6.578;2022-09-12T10:56:33;27.15;;;16.88;;
52412;SDS011;38339;53.234;6.578;2022-09-12T11:12:40;28.67;;;16.70;;
52412;SDS011;38339;53.234;6.578;2022-09-12T11:18:09;32.50;;;18.73;;
52412;SDS011;38339;53.234;6.578;2022-09-12T11:33:55;29.50;;;17.25;;
52412;SDS011;38339;53.234;6.578;2022-09-12T11:36:27;31.70;;;17.55;;
52412;SDS011;38339;53.234;6.578;2022-09-12T11:39:02;27.77;;;15.75;;
52412;SDS011;38339;53.234;6.578;2022-09-12T11:41:44;25.08;;;13.68;;
52412;SDS011;38339;53.234;6.578;2022-09-12T11:44:18;22.75;;;13.13;;
52412;SDS011;38339;53.234;6.578;2022-09-12T11:46:48;24.65;;;14.43;;
52412;SDS011;38339;53.234;6.578;2022-09-12T11:49:19;21.77;;;14.07;;
52412;SDS011;38339;53.234;6.578;2022-09-12T11:52:02;21.50;;;12.55;;
52412;SDS011;38339;53.234;6.578;2022-09-12T11:54:41;22.40;;;13.15;;
52412;SDS011;38339;53.234;6.578;2022-09-12T11:57:19;23.08;;;13.52;;
52412;SDS011;38339;53.234;6.578;2022-09-12T11:59:53;19.77;;;12.45;;
52412;SDS011;38339;53.234;6.578;2022-09-12T12:02:35;15.63;;;9.52;;
52412;SDS011;38339;53.234;6.578;2022-09-12T12:08:00;14.30;;;9.30;;
52412;SDS011;38339;53.234;6.578;2022-09-12T12:10:39;16.95;;;8.73;;
52412;SDS011;38339;53.234;6.578;2022-09-12T12:13:15;13.52;;;8.70;;
52412;SDS011;38339;53.234;6.578;2022-09-12T12:15:59;15.25;;;8.70;;
52412;SDS011;38339;53.234;6.578;2022-09-12T12:18:51;16.80;;;9.07;;
52412;SDS011;38339;53.234;6.578;2022-09-12T12:26:42;15.35;;;9.23;;
52412;SDS011;38339;53.234;6.578;2022-09-12T12:34:42;13.07;;;8.15;;
52412;SDS011;38339;53.234;6.578;2022-09-12T12:44:58;10.63;;;8.30;;
52412;SDS011;38339;53.234;6.578;2022-09-12T12:47:48;13.07;;;7.50;;
52412;SDS011;38339;53.234;6.578;2022-09-12T12:52:56;7.45;;;5.30;;
52412;SDS011;38339;53.234;6.578;2022-09-12T12:58:40;9.25;;;5.63;;
52412;SDS011;38339;53.234;6.578;2022-09-12T13:03:35;9.00;;;5.88;;
52412;SDS011;38339;53.234;6.578;2022-09-12T13:06:03;10.00;;;6.20;;
52412;SDS011;38339;53.234;6.578;2022-09-12T13:08:32;11.15;;;5.47;;
52412;SDS011;38339;53.234;6.578;2022-09-12T13:13:41;10.80;;;6.55;;
52412;SDS011;38339;53.234;6.578;2022-09-12T13:16:30;10.77;;;6.25;;
52412;SDS011;38339;53.234;6.578;2022-09-12T13:18:56;12.50;;;6.10;;
52412;SDS011;38339;53.234;6.578;2022-09-12T13:21:26;8.68;;;5.25;;
52412;SDS011;38339;53.234;6.578;2022-09-12T13:24:25;7.47;;;5.57;;
52412;SDS011;38339;53.234;6.578;2022-09-12T13:26:46;8.82;;;5.32;;
52412;SDS011;38339;53.234;6.578;2022-09-12T13:29:19;7.88;;;4.68;;
52412;SDS011;38339;53.234;6.578;2022-09-12T13:31:51;7.55;;;4.82;;
52412;SDS011;38339;53.234;6.578;2022-09-12T13:34:26;8.57;;;5.90;;
52412;SDS011;38339;53.234;6.578;2022-09-12T13:45:04;10.57;;;5.72;;
52412;SDS011;38339;53.234;6.578;2022-09-12T13:47:42;11.05;;;6.80;;
52412;SDS011;38339;53.234;6.578;2022-09-12T13:50:15;10.85;;;6.65;;
52412;SDS011;38339;53.234;6.578;2022-09-12T13:52:56;10.98;;;6.43;;
52412;SDS011;38339;53.234;6.578;2022-09-12T13:55:32;12.88;;;6.22;;
52412;SDS011;38339;53.234;6.578;2022-09-12T14:00:28;12.00;;;6.57;;
52412;SDS011;38339;53.234;6.578;2022-09-12T14:02:56;9.75;;;5.78;;
52412;SDS011;38339;53.234;6.578;2022-09-12T14:05:47;8.20;;;5.78;;
52412;SDS011;38339;53.234;6.578;2022-09-12T14:08:21;9.25;;;5.57;;
52412;SDS011;38339;53.234;6.578;2022-09-12T14:10:48;8.65;;;5.22;;
52412;SDS011;38339;53.234;6.578;2022-09-12T14:13:24;10.05;;;6.20;;
52412;SDS011;38339;53.234;6.578;2022-09-12T14:15:51;9.55;;;6.28;;
52412;SDS011;38339;53.234;6.578;2022-09-12T14:18:27;13.43;;;7.60;;
52412;SDS011;38339;53.234;6.578;2022-09-12T14:21:00;11.30;;;7.07;;
52412;SDS011;38339;53.234;6.578;2022-09-12T14:23:34;9.88;;;6.97;;
52412;SDS011;38339;53.234;6.578;2022-09-12T14:26:08;11.77;;;6.95;;
52412;SDS011;38339;53.234;6.578;2022-09-12T14:28:38;10.98;;;6.90;;
52412;SDS011;38339;53.234;6.578;2022-09-12T14:31:06;10.18;;;6.82;;
52412;SDS011;38339;53.234;6.578;2022-09-12T14:33:49;8.23;;;5.50;;
52412;SDS011;38339;53.234;6.578;2022-09-12T14:36:18;9.43;;;5.45;;
52412;SDS011;38339;53.234;6.578;2022-09-12T14:38:51;9.65;;;5.78;;
52412;SDS011;38339;53.234;6.578;2022-09-12T14:41:22;12.60;;;6.20;;
52412;SDS011;38339;53.234;6.578;2022-09-12T14:43:53;8.18;;;5.75;;
52412;SDS011;38339;53.234;6.578;2022-09-12T14:46:36;9.10;;;6.80;;
52412;SDS011;38339;53.234;6.578;2022-09-12T14:51:39;11.77;;;6.30;;
52412;SDS011;38339;53.234;6.578;2022-09-12T14:56:56;10.57;;;6.10;;
52412;SDS011;38339;53.234;6.578;2022-09-12T15:04:40;9.35;;;6.30;;
52412;SDS011;38339;53.234;6.578;2022-09-12T15:10:00;19.42;;;12.35;;
52412;SDS011;38339;53.234;6.578;2022-09-12T15:12:29;9.00;;;5.45;;
52412;SDS011;38339;53.234;6.578;2022-09-12T15:14:58;8.55;;;5.68;;
52412;SDS011;38339;53.234;6.578;2022-09-12T15:17:46;9.82;;;6.30;;
52412;SDS011;38339;53.234;6.578;2022-09-12T15:20:12;8.73;;;6.30;;
52412;SDS011;38339;53.234;6.578;2022-09-12T15:22:38;11.50;;;6.47;;
52412;SDS011;38339;53.234;6.578;2022-09-12T15:25:05;11.02;;;7.50;;
52412;SDS011;38339;53.234;6.578;2022-09-12T15:27:31;11.13;;;7.35;;
52412;SDS011;38339;53.234;6.578;2022-09-12T15:29:57;11.65;;;7.60;;
52412;SDS011;38339;53.234;6.578;2022-09-12T15:32:28;9.88;;;7.25;;
52412;SDS011;38339;53.234;6.578;2022-09-12T15:34:54;11.48;;;8.13;;
52412;SDS011;38339;53.234;6.578;2022-09-12T15:37:20;10.77;;;7.40;;
52412;SDS011;38339;53.234;6.578;2022-09-12T15:39:47;11.68;;;8.40;;
52412;SDS011;38339;53.234;6.578;2022-09-12T15:42:14;11.55;;;8.32;;
52412;SDS011;38339;53.234;6.578;2022-09-12T15:44:41;11.88;;;7.72;;
52412;SDS011;38339;53.234;6.578;2022-09-12T15:47:13;9.90;;;7.78;;
52412;SDS011;38339;53.234;6.578;2022-09-12T15:49:39;11.50;;;7.38;;
52412;SDS011;38339;53.234;6.578;2022-09-12T15:52:05;28.27;;;15.00;;
52412;SDS011;38339;53.234;6.578;2022-09-12T15:54:32;16.08;;;9.20;;
52412;SDS011;38339;53.234;6.578;2022-09-12T15:56:57;14.40;;;9.13;;
52412;SDS011;38339;53.234;6.578;2022-09-12T15:59:23;13.88;;;8.57;;
52412;SDS011;38339;53.234;6.578;2022-09-12T16:01:49;15.15;;;8.02;;
52412;SDS011;38339;53.234;6.578;2022-09-12T16:04:25;12.32;;;8.05;;
52412;SDS011;38339;53.234;6.578;2022-09-12T16:06:52;11.80;;;8.43;;
52412;SDS011;38339;53.234;6.578;2022-09-12T16:09:20;13.52;;;8.40;;
52412;SDS011;38339;53.234;6.578;2022-09-12T16:11:46;10.30;;;7.18;;
52412;SDS011;38339;53.234;6.578;2022-09-12T16:14:13;9.77;;;7.38;;
52412;SDS011;38339;53.234;6.578;2022-09-12T16:16:40;12.10;;;7.18;;
52412;SDS011;38339;53.234;6.578;2022-09-12T16:19:06;11.93;;;7.15;;
52412;SDS011;38339;53.234;6.578;2022-09-12T16:21:34;12.02;;;6.50;;
52412;SDS011;38339;53.234;6.578;2022-09-12T16:24:00;11.35;;;6.10;;
52412;SDS011;38339;53.234;6.578;2022-09-12T16:26:26;8.70;;;5.78;;
52412;SDS011;38339;53.234;6.578;2022-09-12T16:28:55;8.05;;;5.28;;
52412;SDS011;38339;53.234;6.578;2022-09-12T16:31:22;8.30;;;5.70;;
52412;SDS011;38339;53.234;6.578;2022-09-12T16:33:48;7.35;;;5.68;;
52412;SDS011;38339;53.234;6.578;2022-09-12T16:36:14;11.38;;;6.10;;
52412;SDS011;38339;53.234;6.578;2022-09-12T16:38:44;10.75;;;5.00;;
52412;SDS011;38339;53.234;6.578;2022-09-12T16:41:16;7.45;;;4.65;;
52412;SDS011;38339;53.234;6.578;2022-09-12T16:43:43;5.80;;;4.57;;
52412;SDS011;38339;53.234;6.578;2022-09-12T16:46:10;5.95;;;4.40;;
52412;SDS011;38339;53.234;6.578;2022-09-12T16:48:44;7.00;;;4.40;;
52412;SDS011;38339;53.234;6.578;2022-09-12T16:51:13;7.22;;;4.60;;
52412;SDS011;38339;53.234;6.578;2022-09-12T16:53:40;6.72;;;4.47;;
52412;SDS011;38339;53.234;6.578;2022-09-12T16:56:07;6.40;;;4.60;;
52412;SDS011;38339;53.234;6.578;2022-09-12T16:58:34;6.90;;;4.15;;
52412;SDS011;38339;53.234;6.578;2022-09-12T17:01:03;5.35;;;3.90;;
52412;SDS011;38339;53.234;6.578;2022-09-12T17:03:33;8.38;;;4.45;;
52412;SDS011;38339;53.234;6.578;2022-09-12T17:06:03;6.63;;;4.05;;
52412;SDS011;38339;53.234;6.578;2022-09-12T17:08:38;5.63;;;3.92;;
52412;SDS011;38339;53.234;6.578;2022-09-12T17:11:08;6.47;;;4.15;;
52412;SDS011;38339;53.234;6.578;2022-09-12T17:13:36;7.93;;;4.32;;
52412;SDS011;38339;53.234;6.578;2022-09-12T17:16:06;7.63;;;4.63;;
52412;SDS011;38339;53.234;6.578;2022-09-12T17:18:34;7.60;;;4.38;;
52412;SDS011;38339;53.234;6.578;2022-09-12T17:21:00;6.90;;;3.83;;
52412;SDS011;38339;53.234;6.578;2022-09-12T17:23:25;9.77;;;4.45;;
52412;SDS011;38339;53.234;6.578;2022-09-12T17:25:51;6.10;;;4.15;;
52412;SDS011;38339;53.234;6.578;2022-09-12T17:28:18;7.00;;;4.70;;
52412;SDS011;38339;53.234;6.578;2022-09-12T17:30:44;7.75;;;4.10;;
52412;SDS011;38339;53.234;6.578;2022-09-12T17:33:11;6.07;;;3.78;;
52412;SDS011;38339;53.234;6.578;2022-09-12T17:35:37;8.05;;;4.47;;
52412;SDS011;38339;53.234;6.578;2022-09-12T17:38:04;7.90;;;4.50;;
52412;SDS011;38339;53.234;6.578;2022-09-12T17:40:30;6.38;;;4.38;;
52412;SDS011;38339;53.234;6.578;2022-09-12T17:42:58;8.95;;;6.80;;
52412;SDS011;38339;53.234;6.578;2022-09-12T17:45:26;8.27;;;4.82;;
52412;SDS011;38339;53.234;6.578;2022-09-12T17:47:52;5.60;;;4.53;;
52412;SDS011;38339;53.234;6.578;2022-09-12T17:50:18;10.00;;;4.32;;
52412;SDS011;38339;53.234;6.578;2022-09-12T17:52:44;7.55;;;4.35;;
52412;SDS011;38339;53.234;6.578;2022-09-12T17:55:11;11.55;;;6.95;;